EJA369 KCRG-KPBI
Flight info
| Callsign | EJA369 |
|---|---|
| Flight time | 0h 41m |
| Altitude | 35000 |
| Route | SAWGY PRMUS KENLL CPTAN3 |
| Aircraft | CL60/M-SBDE1E2E3FGHIJ1J4J5J7M3RWXYZ/LB1V1D1 |
Departure
| Time | 2026-04-26 03:14 |
|---|---|
| Airport | Jacksonville Executive at Craig Airport (KCRG) |
Arrival
| Time | 2026-04-26 03:56 |
|---|---|
| Airport | Palm Beach International Airport (KPBI) |
| Time | Latitude | Longitude | Altitude | Speed | Heading |
|---|---|---|---|---|---|
| 2026-04-26 02:51 | 30.34039 | -81.51892 | 44 ft | 0 kts | 37° |
| 2026-04-26 03:12 | 30.34055 | -81.51879 | 44 ft | 7 kts | 23° |
| 2026-04-26 03:12 | 30.34100 | -81.51843 | 42 ft | 8 kts | 43° |
| 2026-04-26 03:12 | 30.34157 | -81.51877 | 41 ft | 9 kts | 314° |
| 2026-04-26 03:13 | 30.34226 | -81.51903 | 41 ft | 10 kts | 1° |
| 2026-04-26 03:13 | 30.34309 | -81.51902 | 41 ft | 7 kts | 359° |
| 2026-04-26 03:13 | 30.34355 | -81.51892 | 41 ft | 4 kts | 40° |
| 2026-04-26 03:13 | 30.34350 | -81.51862 | 40 ft | 4 kts | 136° |
| 2026-04-26 03:14 | 30.34209 | -81.51700 | 41 ft | 81 kts | 134° |
| 2026-04-26 03:14 | 30.33555 | -81.50942 | 217 ft | 165 kts | 136° |
| 2026-04-26 03:14 | 30.32767 | -81.50021 | 1441 ft | 171 kts | 138° |
| 2026-04-26 03:14 | 30.31891 | -81.49001 | 2543 ft | 194 kts | 138° |
| 2026-04-26 03:15 | 30.30908 | -81.47884 | 3780 ft | 206 kts | 138° |
| 2026-04-26 03:15 | 30.29839 | -81.46709 | 4573 ft | 224 kts | 139° |
| 2026-04-26 03:15 | 30.28681 | -81.45457 | 5478 ft | 232 kts | 139° |
| 2026-04-26 03:15 | 30.27474 | -81.44141 | 6182 ft | 251 kts | 140° |
| 2026-04-26 03:16 | 30.26135 | -81.42702 | 6969 ft | 276 kts | 139° |
| 2026-04-26 03:16 | 30.24714 | -81.41190 | 8261 ft | 287 kts | 139° |
| 2026-04-26 03:16 | 30.23188 | -81.39575 | 9270 ft | 303 kts | 139° |
| 2026-04-26 03:16 | 30.21724 | -81.38017 | 9756 ft | 306 kts | 139° |
| 2026-04-26 03:17 | 30.20147 | -81.36334 | 9936 ft | 306 kts | 138° |
| 2026-04-26 03:17 | 30.18532 | -81.34607 | 10412 ft | 328 kts | 139° |
| 2026-04-26 03:17 | 30.16876 | -81.32833 | 11938 ft | 327 kts | 139° |
| 2026-04-26 03:17 | 30.15244 | -81.31083 | 13304 ft | 329 kts | 139° |
| 2026-04-26 03:18 | 30.13543 | -81.29259 | 14262 ft | 344 kts | 138° |
| 2026-04-26 03:18 | 30.11700 | -81.27283 | 14800 ft | 372 kts | 138° |
| 2026-04-26 03:18 | 30.09727 | -81.25164 | 15291 ft | 392 kts | 138° |
| 2026-04-26 03:18 | 30.07693 | -81.22977 | 15904 ft | 404 kts | 138° |
| 2026-04-26 03:19 | 30.05653 | -81.20789 | 16912 ft | 408 kts | 139° |
| 2026-04-26 03:19 | 30.03360 | -81.18882 | 18018 ft | 407 kts | 153° |
| 2026-04-26 03:19 | 30.00678 | -81.17740 | 19006 ft | 408 kts | 167° |
| 2026-04-26 03:19 | 29.97898 | -81.16933 | 19875 ft | 414 kts | 168° |
| 2026-04-26 03:20 | 29.95121 | -81.16125 | 20732 ft | 418 kts | 168° |
| 2026-04-26 03:20 | 29.92293 | -81.15301 | 21558 ft | 422 kts | 168° |
| 2026-04-26 03:20 | 29.89440 | -81.14469 | 22275 ft | 428 kts | 168° |
| 2026-04-26 03:20 | 29.86510 | -81.13615 | 23027 ft | 433 kts | 168° |
| 2026-04-26 03:21 | 29.83566 | -81.12758 | 23816 ft | 436 kts | 168° |
| 2026-04-26 03:21 | 29.80566 | -81.12236 | 24607 ft | 434 kts | 180° |
| 2026-04-26 03:21 | 29.77545 | -81.12237 | 25271 ft | 437 kts | 183° |
| 2026-04-26 03:21 | 29.74461 | -81.12262 | 25957 ft | 441 kts | 183° |
| 2026-04-26 03:22 | 29.71375 | -81.12283 | 26609 ft | 445 kts | 183° |
| 2026-04-26 03:22 | 29.68293 | -81.12303 | 27219 ft | 448 kts | 183° |
| 2026-04-26 03:22 | 29.65121 | -81.12323 | 27815 ft | 451 kts | 183° |
| 2026-04-26 03:22 | 29.61975 | -81.12342 | 28369 ft | 454 kts | 183° |
| 2026-04-26 03:23 | 29.58823 | -81.12313 | 28882 ft | 459 kts | 179° |
| 2026-04-26 03:23 | 29.55628 | -81.11618 | 29432 ft | 466 kts | 166° |
| 2026-04-26 03:23 | 29.52562 | -81.10368 | 29972 ft | 468 kts | 163° |
| 2026-04-26 03:23 | 29.49499 | -81.09094 | 30561 ft | 468 kts | 163° |
| 2026-04-26 03:24 | 29.46429 | -81.07822 | 31172 ft | 467 kts | 163° |
| 2026-04-26 03:24 | 29.43383 | -81.06560 | 31790 ft | 465 kts | 164° |
| 2026-04-26 03:24 | 29.40334 | -81.05298 | 32344 ft | 465 kts | 164° |
| 2026-04-26 03:24 | 29.37310 | -81.04047 | 32887 ft | 464 kts | 164° |
| 2026-04-26 03:25 | 29.34232 | -81.02775 | 33410 ft | 464 kts | 164° |
| 2026-04-26 03:25 | 29.31201 | -81.01523 | 33933 ft | 463 kts | 165° |
| 2026-04-26 03:25 | 29.28179 | -81.00275 | 34445 ft | 463 kts | 164° |
| 2026-04-26 03:25 | 29.25117 | -80.99012 | 34861 ft | 464 kts | 164° |
| 2026-04-26 03:26 | 29.18935 | -80.96469 | 34931 ft | 477 kts | 164° |
| 2026-04-26 03:26 | 29.12641 | -80.93878 | 34931 ft | 477 kts | 164° |
| 2026-04-26 03:27 | 29.06341 | -80.91288 | 34928 ft | 475 kts | 164° |
| 2026-04-26 03:27 | 29.00118 | -80.88733 | 34930 ft | 474 kts | 164° |
| 2026-04-26 03:28 | 28.93869 | -80.86152 | 34932 ft | 475 kts | 164° |
| 2026-04-26 03:28 | 28.87646 | -80.83611 | 34935 ft | 476 kts | 164° |
| 2026-04-26 03:29 | 28.81331 | -80.81036 | 34932 ft | 477 kts | 164° |
| 2026-04-26 03:29 | 28.75098 | -80.78496 | 34942 ft | 477 kts | 164° |
| 2026-04-26 03:30 | 28.68792 | -80.75929 | 34939 ft | 477 kts | 164° |
| 2026-04-26 03:30 | 28.63573 | -80.73805 | 34941 ft | 476 kts | 163° |
| 2026-04-26 03:31 | 28.56285 | -80.70845 | 34937 ft | 476 kts | 163° |
| 2026-04-26 03:31 | 28.50014 | -80.68301 | 34931 ft | 476 kts | 163° |
| 2026-04-26 03:32 | 28.43751 | -80.65762 | 34293 ft | 478 kts | 164° |
| 2026-04-26 03:32 | 28.40622 | -80.64493 | 33650 ft | 472 kts | 164° |
| 2026-04-26 03:32 | 28.37521 | -80.63236 | 33053 ft | 469 kts | 164° |
| 2026-04-26 03:33 | 28.34465 | -80.61998 | 32483 ft | 468 kts | 163° |
| 2026-04-26 03:33 | 28.31384 | -80.60751 | 31898 ft | 469 kts | 163° |
| 2026-04-26 03:33 | 28.28268 | -80.59491 | 31289 ft | 470 kts | 163° |
| 2026-04-26 03:33 | 28.25203 | -80.58254 | 30678 ft | 471 kts | 163° |
| 2026-04-26 03:34 | 28.22086 | -80.56998 | 30059 ft | 473 kts | 163° |
| 2026-04-26 03:34 | 28.18963 | -80.55740 | 29432 ft | 475 kts | 162° |
| 2026-04-26 03:34 | 28.15826 | -80.54478 | 28807 ft | 476 kts | 162° |
| 2026-04-26 03:34 | 28.12713 | -80.53224 | 28172 ft | 472 kts | 162° |
| 2026-04-26 03:35 | 28.09646 | -80.51990 | 27550 ft | 464 kts | 162° |
| 2026-04-26 03:35 | 28.06641 | -80.50780 | 26939 ft | 456 kts | 162° |
| 2026-04-26 03:35 | 28.03645 | -80.49575 | 26331 ft | 448 kts | 162° |
| 2026-04-26 03:35 | 28.00747 | -80.48410 | 25742 ft | 440 kts | 162° |
| 2026-04-26 03:36 | 27.97869 | -80.47253 | 25162 ft | 433 kts | 162° |
| 2026-04-26 03:36 | 27.95055 | -80.46124 | 24591 ft | 426 kts | 162° |
| 2026-04-26 03:36 | 27.92247 | -80.44997 | 24029 ft | 419 kts | 162° |
| 2026-04-26 03:36 | 27.89499 | -80.43894 | 23478 ft | 412 kts | 162° |
| 2026-04-26 03:37 | 27.86788 | -80.42806 | 22940 ft | 406 kts | 162° |
| 2026-04-26 03:37 | 27.84139 | -80.41743 | 22411 ft | 399 kts | 162° |
| 2026-04-26 03:37 | 27.81534 | -80.40704 | 21883 ft | 396 kts | 162° |
| 2026-04-26 03:37 | 27.78929 | -80.39666 | 21358 ft | 396 kts | 162° |
| 2026-04-26 03:38 | 27.76327 | -80.38625 | 20834 ft | 394 kts | 162° |
| 2026-04-26 03:38 | 27.73735 | -80.37587 | 20307 ft | 391 kts | 162° |
| 2026-04-26 03:38 | 27.71161 | -80.36556 | 19786 ft | 389 kts | 161° |
| 2026-04-26 03:38 | 27.68591 | -80.35529 | 19264 ft | 386 kts | 161° |
| 2026-04-26 03:39 | 27.66066 | -80.34463 | 18747 ft | 384 kts | 158° |
| 2026-04-26 03:39 | 27.63665 | -80.33218 | 18248 ft | 381 kts | 156° |
| 2026-04-26 03:39 | 27.61268 | -80.31950 | 17751 ft | 379 kts | 156° |
| 2026-04-26 03:39 | 27.58882 | -80.30690 | 17255 ft | 376 kts | 156° |
| 2026-04-26 03:40 | 27.56505 | -80.29436 | 16766 ft | 374 kts | 156° |
| 2026-04-26 03:40 | 27.54149 | -80.28193 | 16266 ft | 371 kts | 156° |
| 2026-04-26 03:40 | 27.51818 | -80.26963 | 15771 ft | 369 kts | 156° |
| 2026-04-26 03:40 | 27.49497 | -80.25740 | 15284 ft | 366 kts | 156° |
| 2026-04-26 03:41 | 27.47192 | -80.24526 | 14793 ft | 365 kts | 156° |
| 2026-04-26 03:41 | 27.44917 | -80.23328 | 14322 ft | 361 kts | 156° |
| 2026-04-26 03:41 | 27.42618 | -80.22117 | 13842 ft | 357 kts | 156° |
| 2026-04-26 03:41 | 27.40394 | -80.20946 | 13370 ft | 351 kts | 156° |
| 2026-04-26 03:42 | 27.38217 | -80.19801 | 12915 ft | 345 kts | 156° |
| 2026-04-26 03:42 | 27.36059 | -80.18665 | 12452 ft | 339 kts | 156° |
| 2026-04-26 03:42 | 27.33924 | -80.17543 | 12011 ft | 333 kts | 156° |
| 2026-04-26 03:42 | 27.31841 | -80.16448 | 11572 ft | 328 kts | 156° |
| 2026-04-26 03:43 | 27.29778 | -80.15365 | 11131 ft | 323 kts | 156° |
| 2026-04-26 03:43 | 27.27758 | -80.14304 | 10710 ft | 319 kts | 156° |
| 2026-04-26 03:43 | 27.25754 | -80.13264 | 10289 ft | 314 kts | 157° |
| 2026-04-26 03:43 | 27.23754 | -80.12286 | 9877 ft | 310 kts | 158° |
| 2026-04-26 03:44 | 27.21772 | -80.11324 | 9464 ft | 306 kts | 158° |
| 2026-04-26 03:44 | 27.19833 | -80.10383 | 9066 ft | 301 kts | 158° |
| 2026-04-26 03:44 | 27.17911 | -80.09450 | 8664 ft | 297 kts | 157° |
| 2026-04-26 03:44 | 27.16022 | -80.08534 | 8274 ft | 293 kts | 157° |
| 2026-04-26 03:45 | 27.14159 | -80.07631 | 7885 ft | 289 kts | 157° |
| 2026-04-26 03:45 | 27.12325 | -80.06731 | 7500 ft | 286 kts | 156° |
| 2026-04-26 03:45 | 27.10519 | -80.05836 | 7132 ft | 284 kts | 157° |
| 2026-04-26 03:45 | 27.08696 | -80.04932 | 6757 ft | 284 kts | 156° |
| 2026-04-26 03:46 | 27.06900 | -80.04043 | 6383 ft | 282 kts | 157° |
| 2026-04-26 03:46 | 27.05087 | -80.03146 | 6011 ft | 280 kts | 157° |
| 2026-04-26 03:46 | 27.03306 | -80.02264 | 5638 ft | 279 kts | 157° |
| 2026-04-26 03:47 | 26.99747 | -80.00504 | 4900 ft | 273 kts | 156° |
| 2026-04-26 03:47 | 26.98010 | -79.99646 | 4536 ft | 271 kts | 156° |
| 2026-04-26 03:47 | 26.96208 | -79.99082 | 4176 ft | 267 kts | 175° |
| 2026-04-26 03:47 | 26.94381 | -79.99342 | 3980 ft | 264 kts | 199° |
| 2026-04-26 03:48 | 26.92780 | -80.00328 | 3958 ft | 266 kts | 216° |
| 2026-04-26 03:48 | 26.91305 | -80.01605 | 3963 ft | 267 kts | 219° |
| 2026-04-26 03:48 | 26.90130 | -80.03239 | 3969 ft | 269 kts | 243° |
| 2026-04-26 03:48 | 26.89351 | -80.05160 | 3964 ft | 269 kts | 245° |
| 2026-04-26 03:49 | 26.88578 | -80.07069 | 3968 ft | 269 kts | 244° |
| 2026-04-26 03:49 | 26.87817 | -80.08942 | 3972 ft | 253 kts | 245° |
| 2026-04-26 03:49 | 26.87119 | -80.10660 | 3989 ft | 234 kts | 244° |
| 2026-04-26 03:49 | 26.86457 | -80.12285 | 3984 ft | 227 kts | 245° |
| 2026-04-26 03:50 | 26.85795 | -80.13907 | 3973 ft | 226 kts | 245° |
| 2026-04-26 03:50 | 26.85141 | -80.15510 | 3971 ft | 225 kts | 244° |
| 2026-04-26 03:50 | 26.84487 | -80.17110 | 3969 ft | 225 kts | 245° |
| 2026-04-26 03:50 | 26.83842 | -80.18693 | 3941 ft | 227 kts | 245° |
| 2026-04-26 03:51 | 26.83068 | -80.20244 | 3678 ft | 227 kts | 228° |
| 2026-04-26 03:51 | 26.81820 | -80.21295 | 3334 ft | 222 kts | 202° |
| 2026-04-26 03:51 | 26.80343 | -80.21599 | 3019 ft | 213 kts | 173° |
| 2026-04-26 03:51 | 26.78951 | -80.21098 | 2629 ft | 205 kts | 147° |
| 2026-04-26 03:52 | 26.77932 | -80.20108 | 2417 ft | 187 kts | 135° |
| 2026-04-26 03:52 | 26.77034 | -80.19104 | 2184 ft | 176 kts | 135° |
| 2026-04-26 03:52 | 26.76173 | -80.18152 | 1924 ft | 169 kts | 135° |
| 2026-04-26 03:52 | 26.75371 | -80.17268 | 1688 ft | 155 kts | 135° |
| 2026-04-26 03:53 | 26.74634 | -80.16452 | 1505 ft | 141 kts | 135° |
| 2026-04-26 03:53 | 26.73986 | -80.15734 | 1335 ft | 120 kts | 135° |
| 2026-04-26 03:53 | 26.73392 | -80.15074 | 1173 ft | 119 kts | 135° |
| 2026-04-26 03:53 | 26.72803 | -80.14423 | 1009 ft | 116 kts | 135° |
| 2026-04-26 03:54 | 26.72221 | -80.13778 | 847 ft | 117 kts | 135° |
| 2026-04-26 03:54 | 26.71641 | -80.13133 | 688 ft | 116 kts | 135° |
| 2026-04-26 03:54 | 26.71062 | -80.12489 | 538 ft | 116 kts | 135° |
| 2026-04-26 03:54 | 26.70472 | -80.11832 | 373 ft | 117 kts | 135° |
| 2026-04-26 03:55 | 26.69886 | -80.11186 | 235 ft | 117 kts | 135° |
| 2026-04-26 03:55 | 26.69312 | -80.10545 | 89 ft | 118 kts | 135° |
| 2026-04-26 03:55 | 26.68755 | -80.09927 | 18 ft | 101 kts | 135° |
| 2026-04-26 03:55 | 26.68357 | -80.09489 | 17 ft | 52 kts | 135° |
| 2026-04-26 03:56 | 26.68111 | -80.09216 | 17 ft | 37 kts | 135° |
| 2026-04-26 03:56 | 26.67948 | -80.09036 | 17 ft | 26 kts | 135° |
| 2026-04-26 03:56 | 26.67860 | -80.08927 | 17 ft | 13 kts | 101° |
| 2026-04-26 03:56 | 26.67876 | -80.08834 | 17 ft | 11 kts | 76° |
| 2026-04-26 03:57 | 26.67901 | -80.08733 | 17 ft | 15 kts | 75° |
| 2026-04-26 03:57 | 26.67929 | -80.08614 | 17 ft | 17 kts | 76° |
| 2026-04-26 03:57 | 26.67957 | -80.08492 | 17 ft | 17 kts | 75° |
| 2026-04-26 03:57 | 26.67992 | -80.08352 | 17 ft | 18 kts | 75° |
| 2026-04-26 03:58 | 26.67994 | -80.08257 | 17 ft | 9 kts | 149° |
| 2026-04-26 03:58 | 26.67943 | -80.08234 | 17 ft | 6 kts | 149° |
| 2026-04-26 03:58 | 26.67918 | -80.08234 | 17 ft | 0 kts | 198° |